Time;durP1;ratioP1;P1;durP2;ratioP2;P2;SDS_P1;SDS_P2;PMS_P1;PMS_P2;Temp;Humidity;BMP_temperature;BMP_pressure;BME280_temperature;BME280_humidity;BME280_pressure;Samples;Min_cycle;Max_cycle;Signal;HPM_P1;HPM_P2
2022/06/24 00:02:10;;;;;;;;;;;;;;;21.93;56.83;97426.66;5002563;28;19930;-62
2022/06/24 00:04:38;;;;;;;;;;;;;;;21.89;56.70;97425.91;5001712;28;19925;-63
2022/06/24 00:07:13;;;;;;;;;;;;;;;21.87;57.04;97421.94;5005045;28;20367;-62
2022/06/24 00:09:43;;;;;;;;;;;;;;;21.82;57.11;97431.41;5005859;28;20289;-65
2022/06/24 00:12:13;;;;;;;;;;;;;;;21.86;57.02;97431.44;5004315;28;19964;-64
2022/06/24 00:14:42;;;;;;;;;;;;;;;21.86;57.24;97432.22;5004269;28;19961;-65
2022/06/24 00:17:19;;;;;;;;;;;;;;;21.86;57.35;97426.69;4986744;28;20345;-64
2022/06/24 00:19:53;;;;;;;;;;;;;;;21.80;57.22;97433.81;5004956;28;20445;-65
2022/06/24 00:22:21;;;;;;;;;;;;;;;21.92;57.00;97436.16;5004646;28;19933;-64
2022/06/24 00:24:50;;;;;;;;;;;;;;;21.77;57.37;97440.13;5004116;28;20016;-62
2022/06/24 00:27:22;;;;;;;;;;;;;;;21.71;57.45;97431.44;5003985;28;20381;-64
2022/06/24 00:29:51;;;;;;;;;;;;;;;21.70;57.55;97440.13;5005661;28;20290;-64
2022/06/24 00:32:30;;;;;;;;;;;;;;;21.68;57.48;97436.97;5003898;28;19937;-63
2022/06/24 00:35:01;;;;;;;;;;;;;;;21.74;57.37;97434.59;5005439;28;19929;-65
2022/06/24 00:37:31;;;;;;;;;;;;;;;21.61;57.68;97437.75;5002646;28;20469;-61
2022/06/24 00:39:59;;;;;;;;;;;;;;;21.62;57.53;97433.00;5005484;28;19929;-64
2022/06/24 00:42:30;;;;;;;;;;;;;;;21.60;57.70;97436.19;5004725;28;19983;-64
2022/06/24 00:45:03;;;;;;;;;;;;;;;21.65;57.33;97432.22;5004997;28;19925;-62
2022/06/24 00:47:31;;;;;;;;;;;;;;;21.69;57.50;97433.03;4984615;28;19925;-63
2022/06/24 00:49:59;;;;;;;;;;;;;;;21.55;57.92;97427.50;5005276;28;19929;-63
2022/06/24 00:52:27;;;;;;;;;;;;;;;21.35;58.83;97421.56;5007083;28;20293;-59
2022/06/24 00:54:56;;;;;;;;;;;;;;;21.39;58.37;97425.13;5003105;28;19972;-62
2022/06/24 00:57:24;;;;;;;;;;;;;;;21.30;58.45;97417.22;5004062;28;19926;-63
2022/06/24 00:59:53;;;;;;;;;;;;;;;21.30;58.56;97421.97;5003359;28;19930;-64
2022/06/24 01:02:21;;;;;;;;;;;;;;;21.30;58.70;97417.22;5002818;28;20377;-64
2022/06/24 01:04:49;;;;;;;;;;;;;;;21.21;59.27;97414.03;5005455;28;20349;-61
2022/06/24 01:07:18;;;;;;;;;;;;;;;21.25;58.88;97417.56;5004052;28;20032;-63
2022/06/24 01:09:46;;;;;;;;;;;;;;;21.25;58.92;97412.06;5003431;28;19933;-63
2022/06/24 01:12:14;;;;;;;;;;;;;;;21.18;59.28;97412.84;5003650;28;20465;-62
2022/06/24 01:14:42;;;;;;;;;;;;;;;21.23;59.00;97406.16;5001189;28;20570;-64
2022/06/24 01:17:37;;;;;;;;;;;;;;;21.17;59.40;97407.72;5002999;28;20009;-63
2022/06/24 01:20:09;;;;;;;;;;;;;;;21.16;59.31;97406.94;5003181;28;20452;-62
2022/06/24 01:22:40;;;;;;;;;;;;;;;21.10;59.79;97399.44;5004297;28;20388;-64
2022/06/24 01:25:08;;;;;;;;;;;;;;;21.13;59.67;97404.94;5000752;28;20289;-64
2022/06/24 01:27:37;;;;;;;;;;;;;;;21.07;59.74;97405.75;5003374;28;20309;-63
2022/06/24 01:30:06;;;;;;;;;;;;;;;21.10;59.62;97411.28;5003750;28;20393;-63
2022/06/24 01:32:34;;;;;;;;;;;;;;;21.06;59.94;97415.22;5003038;28;19936;-63
2022/06/24 01:35:02;;;;;;;;;;;;;;;21.03;59.76;97422.28;5004276;28;19925;-63
2022/06/24 01:37:31;;;;;;;;;;;;;;;21.02;59.78;97428.22;5003322;28;19936;-63
2022/06/24 01:40:00;;;;;;;;;;;;;;;20.99;60.08;97423.50;5002419;28;20421;-63
2022/06/24 01:42:30;;;;;;;;;;;;;;;21.03;60.01;97421.50;5000886;28;20012;-62
2022/06/24 01:44:58;;;;;;;;;;;;;;;21.07;60.25;97430.59;5002701;28;19929;-63
2022/06/24 01:47:26;;;;;;;;;;;;;;;21.09;60.13;97415.22;5001754;28;20366;-62
2022/06/24 01:49:54;;;;;;;;;;;;;;;21.20;59.59;97426.28;4986763;28;20269;-63
2022/06/24 01:52:23;;;;;;;;;;;;;;;21.22;59.63;97434.16;5004454;28;19976;-53
2022/06/24 01:54:51;;;;;;;;;;;;;;;21.23;59.60;97433.78;5004713;28;19965;-64
2022/06/24 01:57:20;;;;;;;;;;;;;;;21.17;59.79;97429.81;5004468;28;19925;-64
2022/06/24 01:59:50;;;;;;;;;;;;;;;21.23;59.48;97424.69;5002179;28;19968;-63
2022/06/24 02:02:18;;;;;;;;;;;;;;;21.26;59.22;97433.00;5003964;28;19926;-62
2022/06/24 02:04:47;;;;;;;;;;;;;;;21.24;59.31;97417.97;5001353;28;20007;-62
2022/06/24 02:07:15;;;;;;;;;;;;;;;21.25;58.95;97423.09;5003683;28;20324;-63
2022/06/24 02:15:16;;;;;;;;;;;;;;;21.16;59.09;97412.47;5001128;28;19937;-63
2022/06/24 02:17:44;;;;;;;;;;;;;;;21.16;58.61;97414.44;5003604;28;20049;-61
2022/06/24 02:20:12;;;;;;;;;;;;;;;21.09;58.67;97406.94;5004894;28;20183;-63
2022/06/24 02:22:43;;;;;;;;;;;;;;;21.05;58.56;97408.13;5003734;28;19975;-62
2022/06/24 02:25:11;;;;;;;;;;;;;;;20.99;58.59;97410.47;5001333;28;20044;-62
2022/06/24 02:27:43;;;;;;;;;;;;;;;20.95;59.09;97408.88;5001894;28;19932;-64
2022/06/24 02:30:12;;;;;;;;;;;;;;;20.95;59.06;97412.44;5003104;28;19926;-62
2022/06/24 02:32:40;;;;;;;;;;;;;;;20.95;59.25;97411.66;5002455;28;19987;-62
2022/06/24 02:35:10;;;;;;;;;;;;;;;20.96;58.90;97419.53;5002752;28;19948;-58
2022/06/24 02:37:38;;;;;;;;;;;;;;;20.92;59.18;97419.50;5005154;28;19925;-63
2022/06/24 02:42:57;;;;;;;;;;;;;;;20.87;59.23;97411.59;4999977;28;19930;-62
2022/06/24 02:45:25;;;;;;;;;;;;;;;20.86;59.39;97415.56;5003853;28;19937;-63
2022/06/24 02:47:53;;;;;;;;;;;;;;;20.86;59.40;97414.78;5004510;28;20040;-58
2022/06/24 02:50:21;;;;;;;;;;;;;;;20.82;59.58;97417.50;5006204;28;20467;-63
2022/06/24 02:52:49;;;;;;;;;;;;;;;20.81;59.80;97413.19;5007038;28;19948;-63
2022/06/24 02:55:17;;;;;;;;;;;;;;;20.81;59.62;97404.91;5004035;28;19929;-64
2022/06/24 02:57:45;;;;;;;;;;;;;;;20.84;59.72;97401.38;5004759;28;19929;-64
2022/06/24 03:00:15;;;;;;;;;;;;;;;20.81;59.80;97412.38;5006790;28;19929;-64
2022/06/24 03:02:43;;;;;;;;;;;;;;;20.80;59.77;97419.88;5004794;28;20020;-63
2022/06/24 03:05:12;;;;;;;;;;;;;;;20.80;59.74;97428.16;5006543;28;20403;-63
2022/06/24 03:07:40;;;;;;;;;;;;;;;20.80;59.65;97419.88;5006017;28;19925;-63
2022/06/24 03:10:09;;;;;;;;;;;;;;;20.83;59.66;97410.84;5007717;28;19933;-64
2022/06/24 03:12:37;;;;;;;;;;;;;;;20.82;59.71;97413.97;5006359;28;19925;-64
2022/06/24 03:15:06;;;;;;;;;;;;;;;20.82;59.74;97408.44;5004879;28;19964;-63
2022/06/24 03:17:36;;;;;;;;;;;;;;;20.79;59.82;97414.75;5005798;28;19929;-63
2022/06/24 03:20:05;;;;;;;;;;;;;;;20.86;59.82;97418.31;4988074;28;20032;-65
2022/06/24 03:22:33;;;;;;;;;;;;;;;20.91;59.62;97412.41;5004138;28;20354;-64
2022/06/24 03:25:01;;;;;;;;;;;;;;;20.88;59.88;97418.72;5003040;28;19926;-60
2022/06/24 03:27:29;;;;;;;;;;;;;;;20.85;60.12;97429.75;5003842;28;20360;-64
2022/06/24 03:29:57;;;;;;;;;;;;;;;20.84;60.41;97428.97;5005526;28;19933;-63
2022/06/24 03:32:25;;;;;;;;;;;;;;;20.73;60.84;97422.63;5005737;28;20023;-63
2022/06/24 03:34:55;;;;;;;;;;;;;;;20.77;60.79;97423.41;5005769;28;19989;-59
2022/06/24 03:37:22;;;;;;;;;;;;;;;20.72;61.08;97421.06;5005938;28;20024;-53
2022/06/24 03:39:51;;;;;;;;;;;;;;;20.73;60.81;97422.63;5007212;28;20038;-64
2022/06/24 03:42:19;;;;;;;;;;;;;;;20.74;61.30;97418.69;5005393;28;20709;-63
2022/06/24 03:45:13;;;;;;;;;;;;;;;20.69;61.34;97421.03;5005225;28;20397;-64
2022/06/24 03:47:41;;;;;;;;;;;;;;;20.62;61.95;97416.28;5007139;28;19930;-63
2022/06/24 03:50:11;;;;;;;;;;;;;;;20.56;62.74;97423.34;5006136;28;19937;-64
2022/06/24 03:52:39;;;;;;;;;;;;;;;20.70;62.31;97417.09;5004729;28;20285;-63
2022/06/24 03:55:08;;;;;;;;;;;;;;;20.61;62.35;97417.44;5004084;28;19969;-63
2022/06/24 03:57:37;;;;;;;;;;;;;;;20.51;62.98;97421.78;5004486;28;19933;-63
2022/06/24 04:00:07;;;;;;;;;;;;;;;20.47;63.27;97414.66;5005777;28;20012;-60
2022/06/24 04:02:40;;;;;;;;;;;;;;;20.42;63.50;97424.84;5005403;28;19933;-63
2022/06/24 04:05:14;;;;;;;;;;;;;;;20.45;64.01;97411.44;5001179;28;20358;-62
2022/06/24 04:07:42;;;;;;;;;;;;;;;20.33;64.31;97410.63;5006825;28;20154;-61
2022/06/24 04:10:10;;;;;;;;;;;;;;;20.41;64.61;97412.25;5006315;28;19961;-63
2022/06/24 04:12:41;;;;;;;;;;;;;;;20.44;64.17;97412.63;5005020;28;19933;-63
2022/06/24 04:15:15;;;;;;;;;;;;;;;20.47;64.11;97412.69;5003289;28;20215;-61
2022/06/24 04:17:44;;;;;;;;;;;;;;;20.49;64.76;97404.00;5002599;28;19944;-62
2022/06/24 04:20:14;;;;;;;;;;;;;;;20.44;64.29;97401.59;4984714;28;20382;-62
2022/06/24 04:22:42;;;;;;;;;;;;;;;20.29;65.93;97398.78;5003556;28;20901;-62
2022/06/24 04:25:10;;;;;;;;;;;;;;;20.28;66.42;97413.75;5001125;28;19934;-56
2022/06/24 04:27:38;;;;;;;;;;;;;;;20.21;66.09;97408.22;5000973;28;19934;-62
2022/06/24 04:30:07;;;;;;;;;;;;;;;20.13;67.57;97395.56;5005095;28;20435;-60
2022/06/24 04:32:35;;;;;;;;;;;;;;;20.05;67.60;97391.97;5003038;28;19999;-60
2022/06/24 04:35:05;;;;;;;;;;;;;;;19.99;67.81;97389.97;5001827;28;20325;-58
2022/06/24 04:37:36;;;;;;;;;;;;;;;19.89;69.50;97397.81;5004028;28;20372;-58
2022/06/24 04:40:05;;;;;;;;;;;;;;;19.85;71.06;97408.00;5003579;28;20063;-59
2022/06/24 04:42:33;;;;;;;;;;;;;;;19.75;69.80;97407.94;5003297;28;20003;-58
2022/06/24 04:45:02;;;;;;;;;;;;;;;19.73;70.91;97411.09;5000811;28;19934;-59
2022/06/24 04:47:30;;;;;;;;;;;;;;;19.68;71.60;97403.19;5002289;28;20005;-59
2022/06/24 04:49:58;;;;;;;;;;;;;;;19.69;71.61;97415.78;5001238;28;19926;-59
2022/06/24 04:52:26;;;;;;;;;;;;;;;19.67;72.20;97423.66;5002315;28;19947;-58
2022/06/24 04:54:56;;;;;;;;;;;;;;;19.62;70.63;97427.53;5003636;28;19997;-59
2022/06/24 04:57:24;;;;;;;;;;;;;;;19.67;70.98;97423.66;5000442;28;20017;-59
2022/06/24 04:59:52;;;;;;;;;;;;;;;19.67;71.12;97429.16;4997940;28;19953;-54
2022/06/24 05:02:20;;;;;;;;;;;;;;;19.66;70.59;97424.84;4998579;28;20032;-59
2022/06/24 05:04:48;;;;;;;;;;;;;;;19.64;70.24;97424.41;5003193;28;20300;-60
2022/06/24 05:07:16;;;;;;;;;;;;;;;19.60;71.37;97429.09;5001291;28;19984;-60
2022/06/24 05:09:44;;;;;;;;;;;;;;;19.61;70.83;97425.97;5003312;28;19925;-60
2022/06/24 05:12:14;;;;;;;;;;;;;;;19.68;71.70;97436.25;5001118;28;20418;-59
2022/06/24 05:14:42;;;;;;;;;;;;;;;19.63;71.32;97439.34;5001130;28;20303;-60
2022/06/24 05:17:18;;;;;;;;;;;;;;;19.64;70.71;97440.94;5002158;28;19937;-56
2022/06/24 05:19:47;;;;;;;;;;;;;;;19.75;71.61;97439.03;5003770;28;19960;-60
2022/06/24 05:22:19;;;;;;;;;;;;;;;19.72;70.17;97442.59;5003556;28;20000;-60
2022/06/24 05:24:47;;;;;;;;;;;;;;;19.80;70.12;97443.41;5002531;28;19996;-61
2022/06/24 05:27:19;;;;;;;;;;;;;;;19.84;69.56;97449.75;5002658;28;19941;-61
2022/06/24 05:29:47;;;;;;;;;;;;;;;19.91;69.71;97449.00;5004310;28;19929;-61
2022/06/24 05:32:15;;;;;;;;;;;;;;;19.95;70.10;97455.34;5001396;28;19925;-58
2022/06/24 05:34:43;;;;;;;;;;;;;;;19.91;71.85;97460.81;5002484;28;19929;-61
2022/06/24 05:37:12;;;;;;;;;;;;;;;19.87;72.70;97465.53;5001885;28;19937;-61
2022/06/24 05:39:39;;;;;;;;;;;;;;;19.92;73.36;97461.59;5001895;28;19925;-62
2022/06/24 05:42:08;;;;;;;;;;;;;;;19.93;74.09;97463.22;4988073;28;19925;-61
2022/06/24 05:44:37;;;;;;;;;;;;;;;20.10;73.45;97468.03;5005325;28;20342;-61
2022/06/24 05:47:05;;;;;;;;;;;;;;;20.27;72.22;97464.59;5002964;28;19939;-57
2022/06/24 05:49:34;;;;;;;;;;;;;;;20.37;71.89;97465.81;5004317;28;19952;-59
2022/06/24 05:52:02;;;;;;;;;;;;;;;20.32;72.69;97468.94;5001704;28;20368;-63
2022/06/24 05:57:16;;;;;;;;;;;;;;;20.57;71.57;97458.84;4998218;28;19949;-58
2022/06/24 05:59:45;;;;;;;;;;;;;;;20.76;70.42;97445.91;5004199;28;19933;-63
2022/06/24 06:02:13;;;;;;;;;;;;;;;20.82;70.41;97441.56;5003647;28;20397;-59
2022/06/24 06:04:41;;;;;;;;;;;;;;;20.88;70.63;97440.03;5002700;28;20036;-63
2022/06/24 06:07:10;;;;;;;;;;;;;;;20.73;70.98;97444.72;5002731;28;20326;-57
2022/06/24 06:09:37;;;;;;;;;;;;;;;20.78;70.45;97447.09;5002953;28;20428;-62
2022/06/24 06:12:06;;;;;;;;;;;;;;;20.80;70.43;97449.47;5003954;28;19925;-63
2022/06/24 06:14:34;;;;;;;;;;;;;;;20.93;69.73;97447.91;5003572;28;20016;-62
2022/06/24 06:17:05;;;;;;;;;;;;;;;20.90;69.30;97451.47;4997549;28;20023;-63
2022/06/24 06:19:59;;;;;;;;;;;;;;;21.03;68.63;97449.13;5005069;28;19925;-63
2022/06/24 06:22:27;;;;;;;;;;;;;;;20.93;68.66;97439.63;5009216;28;19933;-63
2022/06/24 06:24:55;;;;;;;;;;;;;;;21.07;68.41;97441.63;4986400;28;19940;-60
2022/06/24 06:27:23;;;;;;;;;;;;;;;21.35;67.18;97438.94;5004212;28;19940;-60
2022/06/24 06:29:51;;;;;;;;;;;;;;;21.42;67.25;97441.72;5008030;28;20381;-63
2022/06/24 06:32:22;;;;;;;;;;;;;;;21.29;68.01;97440.47;5007416;28;19942;-63
2022/06/24 06:34:51;;;;;;;;;;;;;;;21.24;67.17;97440.88;5008099;28;20282;-63
2022/06/24 06:37:19;;;;;;;;;;;;;;;21.17;67.06;97440.88;5005661;28;19957;-63
2022/06/24 06:39:48;;;;;;;;;;;;;;;21.35;66.60;97435.38;5008312;28;19996;-63
2022/06/24 06:42:16;;;;;;;;;;;;;;;21.32;66.67;97434.22;4987769;28;19925;-63
2022/06/24 06:44:45;;;;;;;;;;;;;;;21.32;66.92;97442.50;4987367;28;20262;-62
2022/06/24 06:47:13;;;;;;;;;;;;;;;21.42;66.21;97447.25;4985206;28;20381;-63
2022/06/24 06:49:43;;;;;;;;;;;;;;;21.35;66.30;97449.97;4985940;28;19933;-62
2022/06/24 06:52:11;;;;;;;;;;;;;;;21.33;66.39;97449.59;4982251;28;20650;-63
2022/06/24 06:54:39;;;;;;;;;;;;;;;21.27;67.04;97442.06;4984157;28;20021;-63
2022/06/24 06:57:07;;;;;;;;;;;;;;;21.34;65.70;97436.56;4982605;28;19930;-63
2022/06/24 06:59:35;;;;;;;;;;;;;;;21.39;65.64;97442.50;4986959;28;20231;-63
2022/06/24 07:02:03;;;;;;;;;;;;;;;21.47;65.52;97437.00;4986598;28;20007;-64
2022/06/24 07:04:32;;;;;;;;;;;;;;;21.43;65.50;97429.47;4984580;28;20025;-64
2022/06/24 07:07:01;;;;;;;;;;;;;;;21.42;66.24;97421.59;4985635;28;19926;-64
2022/06/24 07:09:29;;;;;;;;;;;;;;;21.43;66.62;97407.38;4985090;28;19937;-63
2022/06/24 07:11:57;;;;;;;;;;;;;;;21.29;66.15;97404.56;4985706;28;19926;-63
2022/06/24 07:14:26;;;;;;;;;;;;;;;21.21;66.37;97402.22;4985562;28;19929;-64
2022/06/24 07:16:54;;;;;;;;;;;;;;;21.25;66.33;97403.75;4989090;28;19926;-61
2022/06/24 07:19:23;;;;;;;;;;;;;;;21.26;66.90;97404.59;4988622;28;19951;-64
2022/06/24 07:22:17;;;;;;;;;;;;;;;21.28;66.81;97402.22;4986600;28;20014;-63
2022/06/24 07:24:47;;;;;;;;;;;;;;;21.18;67.00;97401.00;4986092;28;19933;-65
2022/06/24 07:27:15;;;;;;;;;;;;;;;21.09;67.47;97389.56;4987830;28;20059;-63
2022/06/24 07:29:43;;;;;;;;;;;;;;;21.09;67.11;97395.88;4989663;28;19941;-64
2022/06/24 07:32:12;;;;;;;;;;;;;;;21.02;67.60;97390.34;4987371;28;19926;-64
2022/06/24 07:34:42;;;;;;;;;;;;;;;20.98;67.62;97383.22;4986667;28;20029;-64
2022/06/24 07:37:10;;;;;;;;;;;;;;;20.90;68.01;97388.75;4988619;28;20388;-64
2022/06/24 07:39:44;;;;;;;;;;;;;;;20.97;67.61;97392.69;4987776;28;20163;-64
2022/06/24 07:42:12;;;;;;;;;;;;;;;20.95;67.25;97384.03;4989730;28;19934;-64
2022/06/24 07:44:43;;;;;;;;;;;;;;;20.88;67.96;97385.59;4987515;28;19933;-63
2022/06/24 07:47:11;;;;;;;;;;;;;;;20.89;67.81;97384.41;4988125;28;19934;-64
2022/06/24 07:49:39;;;;;;;;;;;;;;;20.95;68.14;97378.50;4969898;28;20002;-63
2022/06/24 07:52:08;;;;;;;;;;;;;;;21.06;67.64;97366.28;4987814;28;19926;-63
2022/06/24 07:54:38;;;;;;;;;;;;;;;21.08;68.05;97383.25;4987058;28;20345;-63
2022/06/24 07:57:06;;;;;;;;;;;;;;;21.12;68.96;97383.25;4989021;28;20382;-63
2022/06/24 07:59:35;;;;;;;;;;;;;;;21.34;67.61;97379.34;4987180;28;19930;-64
2022/06/24 08:02:04;;;;;;;;;;;;;;;21.35;68.66;97369.84;4987356;28;20350;-65
2022/06/24 08:04:32;;;;;;;;;;;;;;;21.50;68.68;97376.16;4987170;28;20358;-64
2022/06/24 08:07:02;;;;;;;;;;;;;;;21.52;68.30;97379.34;4986451;28;19926;-65
2022/06/24 08:09:32;;;;;;;;;;;;;;;21.70;67.94;97379.31;4986326;28;19934;-63
2022/06/24 08:12:00;;;;;;;;;;;;;;;21.72;67.55;97376.94;4984563;28;19962;-62
2022/06/24 08:14:31;;;;;;;;;;;;;;;21.82;67.10;97378.09;4985245;28;19972;-65
2022/06/24 08:16:58;;;;;;;;;;;;;;;21.97;66.68;97385.19;4986505;28;19940;-65
2022/06/24 08:19:26;;;;;;;;;;;;;;;22.22;65.27;97385.13;4988773;28;19926;-62
2022/06/24 08:21:55;;;;;;;;;;;;;;;22.39;64.56;97381.50;4986794;28;20335;-64
2022/06/24 08:24:23;;;;;;;;;;;;;;;22.38;63.07;97373.59;4985477;28;20016;-59
2022/06/24 08:26:51;;;;;;;;;;;;;;;22.37;64.48;97367.28;4987168;28;20024;-64
2022/06/24 08:29:19;;;;;;;;;;;;;;;22.37;62.02;97370.06;4986990;28;20287;-64
2022/06/24 08:31:48;;;;;;;;;;;;;;;22.41;62.07;97361.72;4987740;28;19936;-63
2022/06/24 08:34:17;;;;;;;;;;;;;;;22.35;61.05;97358.56;4986045;28;19936;-65
2022/06/24 08:36:45;;;;;;;;;;;;;;;22.52;60.81;97364.44;4988812;28;20350;-64
2022/06/24 08:39:14;;;;;;;;;;;;;;;22.57;60.78;97362.03;4986357;28;19958;-66
2022/06/24 08:41:44;;;;;;;;;;;;;;;22.56;60.91;97352.16;4984718;28;20250;-66
2022/06/24 08:44:13;;;;;;;;;;;;;;;22.70;61.37;97351.28;4982718;28;20175;-59
2022/06/24 08:46:42;;;;;;;;;;;;;;;22.68;60.95;97357.22;4981967;28;20473;-65
2022/06/24 08:49:12;;;;;;;;;;;;;;;22.69;61.07;97356.03;4985093;28;20251;-62
2022/06/24 08:51:41;;;;;;;;;;;;;;;22.69;61.14;97367.13;4984685;28;20713;-66
2022/06/24 08:54:10;;;;;;;;;;;;;;;22.74;60.84;97363.09;4984687;28;20401;-65
2022/06/24 08:56:52;;;;;;;;;;;;;;;22.69;60.27;97361.59;4986909;28;19925;-61
2022/06/24 08:59:20;;;;;;;;;;;;;;;22.67;60.76;97354.84;4985925;28;19929;-66
2022/06/24 09:01:49;;;;;;;;;;;;;;;22.64;60.92;97355.69;4985169;28;20323;-65
2022/06/24 09:04:18;;;;;;;;;;;;;;;22.66;60.75;97356.84;4986587;28;19937;-66
2022/06/24 09:07:12;;;;;;;;;;;;;;;22.82;61.37;97355.56;4987440;28;19934;-66
2022/06/24 09:09:40;;;;;;;;;;;;;;;22.89;60.95;97359.09;4987626;28;20370;-66
2022/06/24 09:12:09;;;;;;;;;;;;;;;23.04;59.93;97359.00;4986883;28;19969;-66
2022/06/24 09:14:44;;;;;;;;;;;;;;;23.08;60.08;97354.22;4987609;28;19925;-65
2022/06/24 09:17:18;;;;;;;;;;;;;;;23.09;59.80;97351.03;4984145;28;20153;-65
2022/06/24 09:19:47;;;;;;;;;;;;;;;23.07;60.35;97360.97;4985610;28;19926;-66
2022/06/24 09:22:33;;;;;;;;;;;;;;;22.97;59.06;97360.63;4986689;28;19983;-66
2022/06/24 09:25:03;;;;;;;;;;;;;;;22.93;58.48;97362.63;4984746;28;19930;-63
2022/06/24 09:27:31;;;;;;;;;;;;;;;22.91;58.13;97355.94;4986489;28;19992;-66
2022/06/24 09:30:01;;;;;;;;;;;;;;;22.99;58.97;97366.53;4985491;28;19961;-66
2022/06/24 09:32:29;;;;;;;;;;;;;;;23.03;59.13;97358.22;4984422;28;19933;-59
2022/06/24 09:35:01;;;;;;;;;;;;;;;23.12;58.58;97350.25;4983030;28;19937;-65
2022/06/24 09:37:36;;;;;;;;;;;;;;;23.13;57.50;97345.47;4984680;28;20730;-66
2022/06/24 09:40:17;;;;;;;;;;;;;;;23.39;57.65;97339.31;4963078;28;20338;-66
2022/06/24 09:42:52;;;;;;;;;;;;;;;23.71;58.30;97341.03;5003196;28;20027;-66
2022/06/24 09:45:20;;;;;;;;;;;;;;;23.79;56.59;97336.97;5005391;28;19926;-65
2022/06/24 09:47:49;;;;;;;;;;;;;;;23.82;56.02;97341.69;5007026;28;19925;-66
2022/06/24 09:50:19;;;;;;;;;;;;;;;23.76;56.43;97338.59;5007107;28;19937;-66
2022/06/24 09:52:47;;;;;;;;;;;;;;;23.70;57.02;97331.09;5002813;28;19929;-60
2022/06/24 09:55:15;;;;;;;;;;;;;;;23.52;56.94;97340.38;5002530;28;19933;-64
2022/06/24 09:57:43;;;;;;;;;;;;;;;23.45;57.42;97334.91;5003913;28;19929;-63
2022/06/24 10:02:57;;;;;;;;;;;;;;;23.93;55.49;97325.72;5001271;28;20526;-59
2022/06/24 10:05:27;;;;;;;;;;;;;;;24.03;56.62;97330.34;5001852;28;19972;-64
2022/06/24 10:07:55;;;;;;;;;;;;;;;24.05;56.69;97333.50;5004586;28;19936;-66
2022/06/24 10:10:23;;;;;;;;;;;;;;;24.26;56.02;97328.88;5001379;28;19980;-66
2022/06/24 10:12:52;;;;;;;;;;;;;;;24.30;55.99;97332.41;5002232;28;19948;-66
2022/06/24 10:15:20;;;;;;;;;;;;;;;24.31;54.88;97325.66;5004192;28;20025;-66
2022/06/24 10:17:48;;;;;;;;;;;;;;;24.29;54.68;97326.06;5004709;28;19945;-66
2022/06/24 10:20:17;;;;;;;;;;;;;;;24.27;54.96;97314.59;5003885;28;19991;-65
2022/06/24 10:22:49;;;;;;;;;;;;;;;24.19;54.08;97315.09;4986892;28;19930;-66
2022/06/24 10:25:19;;;;;;;;;;;;;;;24.20;53.75;97313.91;5002539;28;19940;-62
2022/06/24 10:28:06;;;;;;;;;;;;;;;24.33;53.50;97323.22;5001453;28;19930;-66
2022/06/24 10:30:54;;;;;;;;;;;;;;;24.31;53.28;97318.09;5003726;28;20954;-65
2022/06/24 10:33:23;;;;;;;;;;;;;;;24.20;53.03;97305.56;4988007;28;19932;-66
2022/06/24 10:35:55;;;;;;;;;;;;;;;23.92;53.56;97301.16;5004018;28;19929;-59
2022/06/24 10:38:25;;;;;;;;;;;;;;;23.90;53.30;97298.78;5003582;28;20234;-63
2022/06/24 10:40:53;;;;;;;;;;;;;;;23.85;53.68;97298.47;4999668;28;19936;-61
2022/06/24 10:43:38;;;;;;;;;;;;;;;24.09;53.17;97300.16;4984332;28;20343;-66
2022/06/24 10:46:19;;;;;;;;;;;;;;;24.28;52.48;97293.94;4983037;28;19926;-60
2022/06/24 10:48:58;;;;;;;;;;;;;;;24.47;52.51;97289.75;4984098;28;19933;-58
2022/06/24 10:51:50;;;;;;;;;;;;;;;24.40;51.90;97281.53;4986278;28;19926;-66
2022/06/24 10:54:21;;;;;;;;;;;;;;;24.48;52.81;97277.44;4983214;28;19944;-66
2022/06/24 10:56:50;;;;;;;;;;;;;;;24.54;52.28;97269.44;4982411;28;20355;-66
2022/06/24 10:59:20;;;;;;;;;;;;;;;24.70;52.14;97255.69;4982591;28;19929;-65
2022/06/24 11:01:49;;;;;;;;;;;;;;;24.90;51.35;97266.09;4986868;28;20027;-63
2022/06/24 11:04:19;;;;;;;;;;;;;;;25.05;50.71;97254.31;4986581;28;19937;-66
2022/06/24 11:07:06;;;;;;;;;;;;;;;25.15;50.34;97257.38;4988167;28;19929;-67
2022/06/24 11:09:36;;;;;;;;;;;;;;;25.43;49.58;97250.50;4967082;28;19969;-62
2022/06/24 11:12:05;;;;;;;;;;;;;;;25.43;49.71;97247.72;4986098;28;19934;-67
2022/06/24 11:14:34;;;;;;;;;;;;;;;25.42;50.78;97244.16;4984559;28;20010;-65
2022/06/24 11:17:07;;;;;;;;;;;;;;;25.52;51.82;97245.97;4987855;28;19926;-63
2022/06/24 11:20:00;;;;;;;;;;;;;;;25.77;50.35;97236.34;4984897;28;19929;-67
2022/06/24 11:22:29;;;;;;;;;;;;;;;25.92;50.31;97243.19;4984122;28;19936;-67
2022/06/24 11:24:59;;;;;;;;;;;;;;;25.90;50.54;97236.50;4985455;28;20337;-66
2022/06/24 11:27:33;;;;;;;;;;;;;;;25.87;50.31;97257.63;4985302;28;20023;-66
2022/06/24 11:30:01;;;;;;;;;;;;;;;25.80;50.37;97253.00;4986792;28;19972;-66
2022/06/24 11:32:30;;;;;;;;;;;;;;;25.61;50.76;97251.72;4985830;28;19933;-67
2022/06/24 11:34:59;;;;;;;;;;;;;;;25.70;51.79;97253.94;4987086;28;19934;-67
2022/06/24 11:37:27;;;;;;;;;;;;;;;25.82;50.65;97247.78;4982857;28;19933;-68
2022/06/24 11:39:58;;;;;;;;;;;;;;;25.78;50.56;97249.06;4986198;28;20028;-64
2022/06/24 11:42:52;;;;;;;;;;;;;;;25.88;49.71;97248.06;4985584;28;20341;-68
2022/06/24 11:45:32;;;;;;;;;;;;;;;26.12;49.65;97241.19;4982350;28;20338;-64
2022/06/24 11:48:01;;;;;;;;;;;;;;;26.15;48.10;97233.19;4984117;28;19957;-68
2022/06/24 11:50:29;;;;;;;;;;;;;;;26.30;48.52;97229.66;4984640;28;20859;-67
2022/06/24 11:52:57;;;;;;;;;;;;;;;26.13;48.57;97226.03;4985630;28;19967;-62
2022/06/24 11:55:31;;;;;;;;;;;;;;;26.02;48.58;97230.28;4984897;28;19940;-68
2022/06/24 11:58:00;;;;;;;;;;;;;;;25.83;48.75;97231.84;4984792;28;19944;-68
2022/06/24 12:00:29;;;;;;;;;;;;;;;25.40;48.94;97227.09;4968054;28;19948;-65
2022/06/24 12:02:58;;;;;;;;;;;;;;;25.30;47.80;97219.75;4985202;28;19944;-63
2022/06/24 12:05:27;;;;;;;;;;;;;;;25.28;48.88;97217.41;4981654;28;19940;-68
2022/06/24 12:07:56;;;;;;;;;;;;;;;25.45;49.11;97218.28;4983558;28;19984;-67
2022/06/24 12:10:24;;;;;;;;;;;;;;;25.58;48.75;97224.78;4987073;28;19930;-66
2022/06/24 12:12:59;;;;;;;;;;;;;;;25.58;47.59;97218.44;4986020;28;19933;-64
2022/06/24 12:15:35;;;;;;;;;;;;;;;25.67;48.00;97209.50;4986388;28;19932;-67
2022/06/24 12:18:12;;;;;;;;;;;;;;;25.72;47.51;97220.13;4984393;28;20032;-67
2022/06/24 12:20:40;;;;;;;;;;;;;;;25.71;48.23;97210.22;4986445;28;20255;-66
2022/06/24 12:23:15;;;;;;;;;;;;;;;25.73;48.20;97203.03;4986578;28;19926;-67
2022/06/24 12:25:49;;;;;;;;;;;;;;;25.86;47.82;97194.84;4985612;28;19938;-66
2022/06/24 12:28:17;;;;;;;;;;;;;;;25.94;48.68;97199.06;4982977;28;19945;-66
2022/06/24 12:30:55;;;;;;;;;;;;;;;25.96;47.87;97193.03;4985247;28;19930;-65
2022/06/24 12:33:25;;;;;;;;;;;;;;;25.91;47.86;97196.34;4983815;28;20016;-62
2022/06/24 12:36:17;;;;;;;;;;;;;;;25.86;48.29;97192.06;4982217;28;19934;-66
2022/06/24 12:38:58;;;;;;;;;;;;;;;25.82;47.39;97181.00;4971448;28;19926;-67
2022/06/24 12:41:27;;;;;;;;;;;;;;;25.73;46.86;97178.00;4996414;28;19930;-68
2022/06/24 12:43:58;;;;;;;;;;;;;;;25.79;48.05;97170.75;5008226;28;19948;-67
2022/06/24 12:46:28;;;;;;;;;;;;;;;25.89;48.37;97171.72;5003637;28;20024;-69
2022/06/24 12:51:44;;;;;;;;;;;;;;;26.03;46.13;97165.81;5003310;28;20441;-68
2022/06/24 12:54:15;;;;;;;;;;;;;;;26.20;45.08;97158.28;5001256;28;20374;-68
2022/06/24 12:56:56;;;;;;;;;;;;;;;26.29;43.70;97157.69;4999755;28;20309;-68
2022/06/24 12:59:27;;;;;;;;;;;;;;;26.41;45.28;97168.13;4996616;28;19925;-65
2022/06/24 13:01:56;;;;;;;;;;;;;;;26.43;44.18;97160.16;5005036;28;19929;-66
2022/06/24 13:04:25;;;;;;;;;;;;;;;26.34;44.82;97157.16;5003588;28;19925;-66
2022/06/24 13:06:53;;;;;;;;;;;;;;;26.11;43.97;97161.69;5005682;28;19926;-52
2022/06/24 13:09:27;;;;;;;;;;;;;;;25.92;46.46;97165.28;5001069;28;19926;-62
2022/06/24 13:11:55;;;;;;;;;;;;;;;25.83;46.96;97165.06;4999769;28;19975;-72
2022/06/24 13:14:23;;;;;;;;;;;;;;;25.74;46.83;97162.09;5000701;28;19929;-55
2022/06/24 13:16:51;;;;;;;;;;;;;;;25.64;47.67;97157.53;5003026;28;19933;-80
2022/06/24 13:19:25;;;;;;;;;;;;;;;25.61;47.84;97154.38;4998474;28;19960;-66
2022/06/24 13:21:53;;;;;;;;;;;;;;;25.67;47.26;97142.75;5000690;28;19976;-54